Aeroporto :
LOGIN :

Iscrizione | Disclaimer

   EN    FR    IT 

 










Sommario :    VFR   VFR Marginale   IFR   IFR Intensivo   IFR Molto Intensivo
Visibilità : 
Base nubi : 
>= 8 km
>= 3000ft
5 / 8 km
1000 / 3000 ft
1500m / 5 km
500 / 1000 ft
800 / 1500m
200 / 500 ft
< 800m
< 200 ft
Simboli :   Temporali  Nebbia  Neve Forte  Precipitazioni Forti  Vento > 20 kt
SIGMETs :   Varie  Temporali  Ghiacco  Turbolenza  Onda orograficha  Ceneri Vulcaniche






- Altitudine del aeroporto : 14 ft
- Codice IATA : BRE


EDDW - Bremen Neuenland

ULTIMO METAR :
  • 221150Z 29009KT 6000 -DZ SCT005 BKN020 07/06 Q1034 TEMPO BKN012

METARs OBSOLETI :
  • 221120Z 28007KT 6000 SCT005 BKN020 07/06 Q1034 TEMPO BKN012
  • 221050Z 28007KT 4200 -DZ BR BKN005 BKN012 06/06 Q1034 BECMG 7000 SCT005 BKN015
  • 221020Z 29007KT 3600 -DZ BR OVC004 06/06 Q1034 BECMG 5000 BKN005
  • 220950Z 28008KT 2300 -DZ BR OVC003 06/06 Q1034 BECMG 5000 BKN005
  • 220920Z 27007KT 3600 -DZ BR OVC003 06/05 Q1034 BECMG 5000 BKN005

TAF TAF EDDW
Valido dal 22 a 12 ore il 23 a 12 ore UTC


221100Z 2212/2312 30008KT 9999 SCT010
TEMPO 2212/2214 BKN010
BECMG 2219/2221 23004KT
TEMPO 2219/2222 4000 BR BKN012
BECMG 2222/2301 4000 BR BKN008
BECMG 2301/2304 1200 BR BKN003
TEMPO 2301/2308 0200 FG BKN001
BECMG 2308/2310 4000 BKN008
BECMG 2310/2312 6000 BKN015



MetMap, La meteo Aeronautica in un colpo d'occhio ! - Copyright ORBIFLY Dicembre 2007 - Disclaimer

ORBIFLY MET'MAP TEAM :

Programmazione e sviluppo : Alexandra Zaïnal
Concezione : Baudouin d'Aumeries
Aiuto per la programmazione : Marc-Olivier Méhu
Supporto tecnico e logistico : Manuel Goepfert
Aiuto per la traduzione : Arnaldo La Scala

Contatto : metmap@orbifly.com




FONTI E CREDITI :

   NOAA